Time;durP1;ratioP1;P1;durP2;ratioP2;P2;SDS_P1;SDS_P2;PMS_P1;PMS_P2;Temp;Humidity;BMP_temperature;BMP_pressure;BME280_temperature;BME280_humidity;BME280_pressure;Samples;Min_cycle;Max_cycle;Signal;HPM_P1;HPM_P2
2023/07/26 00:02:09;;;;;;;25.00;23.48;;;12.20;99.90;;;;;;5094830;28;20091;-73
2023/07/26 00:04:35;;;;;;;23.58;21.48;;;12.30;99.90;;;;;;5113013;27;20027;-73
2023/07/26 00:07:00;;;;;;;22.40;20.80;;;12.20;99.90;;;;;;5112484;27;20503;-73
2023/07/26 00:09:26;;;;;;;23.88;22.05;;;12.20;99.90;;;;;;5112645;27;20456;-72
2023/07/26 00:11:52;;;;;;;25.65;24.15;;;12.20;99.90;;;;;;5109270;28;20066;-73
2023/07/26 00:14:17;;;;;;;25.65;24.00;;;12.20;99.90;;;;;;5090178;28;20055;-72
2023/07/26 00:16:43;;;;;;;24.00;22.50;;;12.20;99.90;;;;;;5106774;28;20107;-72
2023/07/26 00:19:09;;;;;;;25.90;24.17;;;12.10;99.90;;;;;;5104677;28;20105;-72
2023/07/26 00:21:34;;;;;;;27.63;25.05;;;12.20;99.90;;;;;;5090649;28;20032;-73
2023/07/26 00:24:00;;;;;;;26.45;24.63;;;12.10;99.90;;;;;;5107707;27;20531;-72
2023/07/26 00:26:26;;;;;;;25.40;23.40;;;12.10;99.90;;;;;;5105926;27;20043;-72
2023/07/26 00:28:51;;;;;;;25.98;24.10;;;12.10;99.90;;;;;;5106951;27;20024;-72
2023/07/26 00:31:17;;;;;;;27.08;24.85;;;12.10;99.90;;;;;;5102285;28;20055;-72
2023/07/26 00:33:43;;;;;;;25.20;23.20;;;12.10;99.90;;;;;;5106650;27;20032;-72
2023/07/26 00:36:09;;;;;;;26.58;24.52;;;12.00;99.90;;;;;;5107154;28;20132;-71
2023/07/26 00:38:35;;;;;;;27.23;25.00;;;11.90;99.90;;;;;;5105126;27;20032;-72
2023/07/26 00:41:01;;;;;;;27.15;25.00;;;11.90;99.90;;;;;;5109902;27;20040;-73
2023/07/26 00:43:26;;;;;;;29.00;26.77;;;11.80;99.90;;;;;;5106797;28;20027;-72
2023/07/26 00:45:53;;;;;;;26.98;25.08;;;11.80;99.90;;;;;;5105489;27;20503;-72
2023/07/26 00:48:19;;;;;;;29.50;24.38;;;11.80;99.90;;;;;;5107971;28;20034;-72
2023/07/26 00:50:47;;;;;;;25.48;23.48;;;11.70;99.90;;;;;;5109147;28;20024;-72
2023/07/26 00:53:13;;;;;;;27.17;24.58;;;11.70;99.90;;;;;;5105977;28;20024;-72
2023/07/26 00:55:39;;;;;;;27.23;24.92;;;11.60;99.90;;;;;;5107581;28;20585;-72
2023/07/26 00:58:05;;;;;;;26.08;23.95;;;11.60;99.90;;;;;;5105911;28;20077;-73
2023/07/26 01:00:31;;;;;;;28.10;25.63;;;11.50;99.90;;;;;;5105021;27;20043;-72
2023/07/26 01:02:57;;;;;;;28.83;26.60;;;11.50;99.90;;;;;;5104716;28;20035;-72
2023/07/26 01:05:27;;;;;;;29.10;26.60;;;11.50;99.90;;;;;;5109060;28;20043;-73
2023/07/26 01:08:21;;;;;;;25.97;24.00;;;11.50;99.90;;;;;;5108007;28;20531;-72
2023/07/26 01:11:27;;;;;;;26.95;24.75;;;11.50;99.90;;;;;;5107139;28;20039;-72
2023/07/26 01:14:21;;;;;;;26.88;24.85;;;11.30;99.90;;;;;;5093889;28;20063;-72
2023/07/26 01:16:47;;;;;;;27.08;24.67;;;11.20;99.90;;;;;;5102814;28;20046;-72
2023/07/26 01:19:12;;;;;;;28.58;26.17;;;11.20;99.90;;;;;;5108937;28;20298;-72
2023/07/26 01:21:38;;;;;;;27.63;25.33;;;11.10;99.90;;;;;;5107257;28;20039;-73
2023/07/26 01:24:04;;;;;;;29.63;27.10;;;11.00;99.90;;;;;;5088849;28;20130;-72
2023/07/26 01:26:29;;;;;;;28.95;26.65;;;11.00;99.90;;;;;;5108000;28;20034;-72
2023/07/26 01:28:55;;;;;;;28.80;26.60;;;11.00;99.90;;;;;;5105328;28;20101;-72
2023/07/26 01:31:23;;;;;;;28.85;26.20;;;11.00;99.90;;;;;;5107325;27;20138;-72
2023/07/26 01:33:52;;;;;;;28.20;26.15;;;11.00;99.90;;;;;;5108021;27;20028;-73
2023/07/26 01:36:22;;;;;;;27.92;25.52;;;11.00;99.90;;;;;;5107430;27;20070;-72
2023/07/26 01:38:49;;;;;;;28.23;25.48;;;11.00;99.90;;;;;;5107152;28;20035;-72
2023/07/26 01:41:16;;;;;;;28.95;25.90;;;10.90;99.90;;;;;;5102398;28;20047;-72
2023/07/26 01:43:43;;;;;;;29.63;27.20;;;10.90;99.90;;;;;;5107639;27;20028;-72
2023/07/26 01:46:12;;;;;;;28.52;26.38;;;10.90;99.90;;;;;;5106392;27;20424;-73
2023/07/26 01:48:39;;;;;;;30.10;27.80;;;11.00;99.90;;;;;;5100896;28;20089;-72
2023/07/26 01:51:04;;;;;;;27.80;25.58;;;11.10;99.90;;;;;;5105325;28;20081;-73
2023/07/26 01:53:30;;;;;;;28.50;25.90;;;11.10;99.90;;;;;;5103192;28;20039;-72
2023/07/26 01:55:56;;;;;;;31.40;28.85;;;11.10;99.90;;;;;;5102971;28;20391;-72
2023/07/26 01:58:21;;;;;;;28.33;25.95;;;11.10;99.90;;;;;;5103499;28;20482;-73
2023/07/26 02:00:47;;;;;;;29.45;26.65;;;11.10;99.90;;;;;;5107024;28;20104;-73
2023/07/26 02:03:12;;;;;;;30.10;27.60;;;11.10;99.90;;;;;;5102709;28;20031;-72
2023/07/26 02:05:45;;;;;;;29.75;27.17;;;11.30;99.90;;;;;;5105991;28;20134;-72
2023/07/26 02:08:11;;;;;;;28.92;26.90;;;11.40;99.90;;;;;;5103098;28;20567;-72
2023/07/26 02:10:39;;;;;;;27.90;25.65;;;11.60;99.90;;;;;;5107080;28;20409;-72
2023/07/26 02:13:04;;;;;;;29.20;26.55;;;11.40;99.90;;;;;;5103522;28;20035;-72
2023/07/26 02:15:31;;;;;;;30.08;27.27;;;11.40;99.90;;;;;;5106598;28;20431;-73
2023/07/26 02:17:57;;;;;;;27.42;25.05;;;11.50;99.90;;;;;;5104424;28;20066;-73
2023/07/26 02:20:22;;;;;;;27.23;24.92;;;11.40;99.90;;;;;;5104567;28;20032;-72
2023/07/26 02:22:48;;;;;;;26.75;23.75;;;11.40;99.90;;;;;;5102213;28;20024;-73
2023/07/26 02:25:14;;;;;;;27.98;25.60;;;11.30;99.90;;;;;;5102550;28;20032;-72
2023/07/26 02:27:40;;;;;;;28.45;26.08;;;11.40;99.90;;;;;;5101005;28;20059;-73
2023/07/26 02:30:06;;;;;;;28.90;26.25;;;11.50;99.90;;;;;;5105169;28;20055;-72
2023/07/26 02:32:32;;;;;;;29.38;26.92;;;11.50;99.90;;;;;;5103556;28;20054;-72
2023/07/26 02:34:58;;;;;;;26.33;24.42;;;11.40;99.90;;;;;;5104254;28;20490;-72
2023/07/26 02:37:24;;;;;;;27.10;24.73;;;11.60;99.90;;;;;;5107026;28;20031;-72
2023/07/26 02:39:50;;;;;;;26.60;24.55;;;11.60;99.90;;;;;;5087914;28;20036;-72
2023/07/26 02:42:16;;;;;;;26.25;23.98;;;11.60;99.90;;;;;;5104182;28;20501;-72
2023/07/26 02:44:41;;;;;;;27.13;24.88;;;11.60;99.90;;;;;;5105249;28;20035;-71
2023/07/26 02:47:07;;;;;;;28.38;26.08;;;11.60;99.90;;;;;;5105336;28;20718;-72
2023/07/26 02:49:33;;;;;;;29.63;27.40;;;11.60;99.90;;;;;;5105384;28;20042;-72
2023/07/26 02:51:59;;;;;;;25.92;23.65;;;11.70;99.90;;;;;;5104110;28;20459;-73
2023/07/26 02:54:24;;;;;;;28.83;26.55;;;11.70;99.90;;;;;;5108712;28;20035;-72
2023/07/26 02:56:50;;;;;;;26.15;24.05;;;11.60;99.90;;;;;;5107682;27;20081;-73
2023/07/26 02:59:18;;;;;;;26.75;24.30;;;11.70;99.90;;;;;;5108185;28;20081;-73
2023/07/26 03:01:44;;;;;;;25.98;23.73;;;11.70;99.90;;;;;;5107291;28;20036;-73
2023/07/26 03:04:10;;;;;;;25.98;23.88;;;11.70;99.90;;;;;;5109008;28;20037;-72
2023/07/26 03:06:36;;;;;;;25.45;23.00;;;11.60;99.90;;;;;;5110091;28;20560;-73
2023/07/26 03:09:02;;;;;;;24.08;22.05;;;11.70;99.90;;;;;;5110293;28;20123;-72
2023/07/26 03:11:27;;;;;;;26.80;24.63;;;11.60;99.90;;;;;;5109600;28;20066;-72
2023/07/26 03:13:53;;;;;;;27.10;24.90;;;11.60;99.90;;;;;;5106950;28;20032;-73
2023/07/26 03:16:19;;;;;;;25.42;23.27;;;11.70;99.90;;;;;;5104173;28;20093;-73
2023/07/26 03:18:44;;;;;;;27.17;24.83;;;11.70;99.90;;;;;;5117039;28;20027;-72
2023/07/26 03:21:10;;;;;;;24.20;22.25;;;11.60;99.90;;;;;;5120992;28;21138;-72
2023/07/26 03:23:37;;;;;;;23.38;21.42;;;11.60;99.90;;;;;;5116458;28;20031;-72
2023/07/26 03:26:03;;;;;;;23.40;21.60;;;11.60;99.90;;;;;;5114309;27;20039;-71
2023/07/26 03:28:28;;;;;;;23.05;21.05;;;11.60;99.90;;;;;;5115787;28;20028;-72
2023/07/26 03:30:54;;;;;;;22.73;21.13;;;11.60;99.90;;;;;;5098196;28;20028;-72
2023/07/26 03:33:20;;;;;;;24.48;22.55;;;11.60;99.90;;;;;;5092005;28;20114;-72
2023/07/26 03:35:46;;;;;;;22.52;20.55;;;11.60;99.90;;;;;;5114627;28;20019;-72
2023/07/26 03:38:11;;;;;;;22.02;19.85;;;11.50;99.90;;;;;;5109785;28;20602;-73
2023/07/26 03:40:38;;;;;;;23.20;21.40;;;11.50;99.90;;;;;;5108382;27;20403;-72
2023/07/26 03:43:03;;;;;;;22.27;20.45;;;11.40;99.90;;;;;;5106413;28;20165;-73
2023/07/26 03:45:29;;;;;;;22.30;20.83;;;11.50;99.90;;;;;;5105555;28;20028;-73
2023/07/26 03:47:55;;;;;;;22.50;20.50;;;11.40;99.90;;;;;;5107997;28;20101;-72
2023/07/26 03:50:21;;;;;;;20.77;19.38;;;11.40;99.90;;;;;;5101642;28;20027;-72
2023/07/26 03:52:47;;;;;;;20.67;18.98;;;11.50;99.90;;;;;;5102650;28;20032;-73
2023/07/26 03:55:13;;;;;;;20.40;18.77;;;11.50;99.90;;;;;;5109796;27;20063;-73
2023/07/26 03:57:38;;;;;;;20.00;18.60;;;11.30;99.90;;;;;;5111332;27;20039;-72
2023/07/26 04:00:05;;;;;;;19.63;18.33;;;11.30;99.90;;;;;;5109627;28;20494;-73
2023/07/26 04:02:31;;;;;;;18.40;17.30;;;11.30;99.90;;;;;;5104169;28;20065;-73
2023/07/26 04:04:57;;;;;;;18.63;17.30;;;11.20;99.90;;;;;;5102471;28;20028;-72
2023/07/26 04:07:23;;;;;;;18.10;16.60;;;11.20;99.90;;;;;;5106653;28;20081;-72
2023/07/26 04:09:49;;;;;;;19.15;17.65;;;11.20;99.90;;;;;;5107273;28;20106;-72
2023/07/26 04:12:15;;;;;;;20.08;18.42;;;11.20;99.90;;;;;;5105493;27;20043;-72
2023/07/26 04:14:41;;;;;;;18.63;17.40;;;11.30;99.90;;;;;;5105375;28;20107;-72
2023/07/26 04:17:06;;;;;;;21.25;19.35;;;11.40;99.90;;;;;;5103375;28;20130;-72
2023/07/26 04:19:32;;;;;;;19.27;17.88;;;11.40;99.90;;;;;;5104894;28;20031;-73
2023/07/26 04:21:58;;;;;;;17.85;16.65;;;11.40;99.90;;;;;;5104888;28;20028;-73
2023/07/26 04:24:23;;;;;;;17.58;16.48;;;11.30;99.90;;;;;;5107321;27;20043;-72
2023/07/26 04:26:49;;;;;;;17.55;16.42;;;11.40;98.40;;;;;;5105548;28;20054;-72
2023/07/26 04:29:15;;;;;;;16.40;15.15;;;11.40;99.20;;;;;;5104176;28;20032;-73
2023/07/26 04:31:40;;;;;;;19.42;18.23;;;11.40;99.00;;;;;;5090744;28;20050;-73
2023/07/26 04:34:06;;;;;;;36.78;32.88;;;11.40;97.10;;;;;;5103810;28;20032;-73
2023/07/26 04:36:32;;;;;;;18.42;17.23;;;11.50;97.70;;;;;;5106586;28;20028;-72
2023/07/26 04:38:57;;;;;;;17.00;15.95;;;11.50;97.10;;;;;;5108509;28;20031;-72
2023/07/26 04:41:23;;;;;;;17.15;15.80;;;11.40;96.40;;;;;;5107294;28;20580;-73
2023/07/26 04:43:49;;;;;;;16.67;15.68;;;11.30;97.10;;;;;;5110496;28;20386;-72
2023/07/26 04:46:16;;;;;;;15.82;14.73;;;11.30;97.10;;;;;;5107807;28;20382;-72
2023/07/26 04:48:42;;;;;;;15.00;14.15;;;11.20;96.60;;;;;;5108136;28;20028;-73
2023/07/26 04:51:07;;;;;;;16.42;15.38;;;11.30;96.70;;;;;;5109183;27;20126;-73
2023/07/26 04:53:33;;;;;;;16.70;15.80;;;11.20;96.00;;;;;;5073471;28;20039;-73
2023/07/26 04:55:59;;;;;;;17.48;16.38;;;11.20;95.90;;;;;;5106228;28;20047;-72
2023/07/26 04:58:24;;;;;;;17.60;16.05;;;11.30;96.00;;;;;;5106708;28;20036;-72
2023/07/26 05:00:50;;;;;;;16.05;15.10;;;11.30;96.60;;;;;;5088732;28;20518;-72
2023/07/26 05:03:16;;;;;;;16.67;15.48;;;11.40;96.40;;;;;;5101993;28;20571;-72
2023/07/26 05:05:47;;;;;;;17.00;15.88;;;11.40;96.30;;;;;;5101294;28;20107;-73
2023/07/26 05:08:13;;;;;;;16.65;15.52;;;11.50;96.50;;;;;;5104301;28;20047;-72
2023/07/26 05:10:39;;;;;;;18.10;17.00;;;11.50;97.10;;;;;;5102470;28;20039;-72
2023/07/26 05:13:04;;;;;;;17.90;16.70;;;11.60;96.90;;;;;;5104780;28;20122;-73
2023/07/26 05:15:30;;;;;;;17.77;16.67;;;11.70;97.00;;;;;;5103280;28;20023;-72
2023/07/26 05:17:56;;;;;;;18.58;17.23;;;11.80;96.90;;;;;;5107293;28;20035;-74
2023/07/26 05:20:23;;;;;;;21.17;19.67;;;11.80;96.40;;;;;;5099382;28;20031;-74
2023/07/26 05:22:48;;;;;;;18.90;17.73;;;11.80;96.90;;;;;;5101762;28;20051;-74
2023/07/26 05:25:14;;;;;;;20.23;18.83;;;11.80;97.10;;;;;;5104649;28;20473;-80
2023/07/26 05:27:40;;;;;;;19.70;18.40;;;11.90;97.10;;;;;;5102280;28;20098;-83
2023/07/26 05:30:06;;;;;;;20.30;18.90;;;11.90;97.40;;;;;;5083521;28;20392;-78
2023/07/26 05:32:32;;;;;;;21.55;19.77;;;11.90;97.40;;;;;;5105328;28;20513;-79
2023/07/26 05:34:58;;;;;;;20.38;18.98;;;11.90;97.20;;;;;;5103422;28;20529;-77
2023/07/26 05:37:24;;;;;;;36.35;26.67;;;11.90;97.20;;;;;;5103214;28;20055;-79
2023/07/26 05:39:51;;;;;;;25.90;23.88;;;11.90;97.70;;;;;;5087653;28;21526;-76
2023/07/26 05:42:17;;;;;;;26.60;24.67;;;11.60;99.90;;;;;;5105879;28;20035;-80
2023/07/26 05:44:43;;;;;;;34.80;32.20;;;11.50;99.90;;;;;;5103976;28;20481;-79
2023/07/26 05:47:13;;;;;;;17.42;16.38;;;11.00;98.00;;;;;;5089438;28;20032;-78
2023/07/26 05:49:43;;;;;;;44.60;34.25;;;10.60;99.90;;;;;;5106070;28;20461;-77
2023/07/26 05:52:10;;;;;;;23.40;21.70;;;10.40;99.90;;;;;;5106973;28;20039;-78
2023/07/26 05:54:36;;;;;;;19.15;18.00;;;10.30;99.90;;;;;;5107175;28;20281;-80
2023/07/26 05:57:01;;;;;;;21.10;19.83;;;10.30;99.90;;;;;;5104881;28;20036;-84
2023/07/26 05:59:27;;;;;;;18.80;17.83;;;10.30;99.90;;;;;;5085733;28;20038;-81
2023/07/26 06:01:53;;;;;;;19.35;18.13;;;10.30;99.90;;;;;;5103125;28;20028;-81
2023/07/26 06:04:18;;;;;;;19.67;18.48;;;10.40;99.90;;;;;;5072529;28;20046;-81
2023/07/26 06:06:45;;;;;;;19.33;18.27;;;10.60;99.90;;;;;;5087905;28;20023;-79
2023/07/26 06:09:11;;;;;;;19.95;18.85;;;10.70;99.90;;;;;;5104975;28;20024;-80
2023/07/26 06:11:36;;;;;;;21.48;19.92;;;10.70;99.90;;;;;;5105520;28;20046;-79
2023/07/26 06:14:02;;;;;;;20.58;19.17;;;10.70;99.90;;;;;;5088920;28;20498;-79
2023/07/26 06:16:28;;;;;;;21.15;19.95;;;10.70;99.90;;;;;;5106050;28;20024;-79
2023/07/26 06:18:54;;;;;;;22.83;21.10;;;10.90;99.90;;;;;;5085450;28;20047;-78
2023/07/26 06:21:19;;;;;;;21.55;20.25;;;11.10;99.90;;;;;;5088331;28;20039;-79
2023/07/26 06:23:46;;;;;;;20.90;19.70;;;11.20;99.90;;;;;;5086261;28;20030;-85
2023/07/26 06:26:12;;;;;;;23.25;21.85;;;11.20;99.90;;;;;;5103178;28;20122;-78
2023/07/26 06:28:37;;;;;;;23.80;22.20;;;11.30;99.90;;;;;;5089398;28;20119;-79
2023/07/26 06:31:03;;;;;;;23.25;21.80;;;11.40;99.90;;;;;;5076943;28;20554;-84
2023/07/26 06:33:29;;;;;;;24.27;22.67;;;11.50;99.90;;;;;;5111289;27;20028;-79
2023/07/26 06:35:55;;;;;;;25.40;23.60;;;11.70;99.90;;;;;;5088770;28;21276;-83
2023/07/26 06:38:21;;;;;;;28.58;26.38;;;11.70;99.90;;;;;;5107735;28;20081;-83
2023/07/26 06:40:47;;;;;;;27.90;25.65;;;11.90;99.90;;;;;;5108499;28;20036;-80
2023/07/26 06:43:13;;;;;;;28.92;26.70;;;11.90;99.90;;;;;;5107160;28;20043;-79
2023/07/26 06:45:45;;;;;;;29.50;27.05;;;11.80;99.90;;;;;;5090697;28;20028;-80
2023/07/26 06:48:10;;;;;;;29.60;27.50;;;11.90;99.90;;;;;;5089552;28;20103;-78
2023/07/26 06:50:39;;;;;;;30.48;28.40;;;12.00;99.90;;;;;;5092337;28;20512;-80
2023/07/26 06:53:05;;;;;;;29.20;27.35;;;12.00;99.90;;;;;;5105897;28;20497;-79
2023/07/26 06:55:34;;;;;;;31.20;28.25;;;12.00;99.90;;;;;;5104327;28;20061;-80
2023/07/26 06:58:00;;;;;;;30.30;27.67;;;12.10;99.90;;;;;;5106724;28;20027;-79
2023/07/26 07:00:26;;;;;;;29.95;27.92;;;12.00;99.90;;;;;;5093266;28;20046;-79
2023/07/26 07:03:00;;;;;;;30.13;27.75;;;12.10;99.90;;;;;;5090112;28;20370;-83
2023/07/26 07:05:33;;;;;;;29.25;27.02;;;12.10;99.90;;;;;;5107544;28;20032;-80
2023/07/26 07:07:59;;;;;;;28.58;26.27;;;12.20;99.90;;;;;;5111605;28;20023;-79
2023/07/26 07:10:24;;;;;;;27.15;25.23;;;12.30;99.90;;;;;;5090799;28;20024;-79
2023/07/26 07:12:50;;;;;;;28.20;25.92;;;12.30;99.90;;;;;;5108226;28;20038;-80
2023/07/26 07:15:16;;;;;;;28.15;26.27;;;12.30;99.90;;;;;;5090494;28;20513;-83
2023/07/26 07:17:42;;;;;;;29.63;27.25;;;12.30;99.90;;;;;;5090508;28;20031;-80
2023/07/26 07:20:08;;;;;;;27.55;25.35;;;12.50;99.90;;;;;;5109008;28;20058;-78
2023/07/26 07:22:34;;;;;;;28.77;26.90;;;12.40;99.90;;;;;;5110310;27;20133;-79
2023/07/26 07:25:02;;;;;;;28.23;26.33;;;12.40;99.90;;;;;;5108038;28;20020;-78
2023/07/26 07:27:28;;;;;;;25.13;23.40;;;12.60;99.90;;;;;;5105448;28;20031;-78
2023/07/26 07:29:54;;;;;;;28.05;26.10;;;12.60;99.90;;;;;;5104649;28;20050;-77
2023/07/26 07:32:19;;;;;;;27.95;25.85;;;12.90;99.90;;;;;;5107981;28;20035;-78
2023/07/26 07:34:46;;;;;;;33.33;30.70;;;13.00;99.90;;;;;;5087784;28;20056;-78
2023/07/26 07:37:12;;;;;;;33.30;30.98;;;13.30;99.90;;;;;;5107568;28;20032;-81
2023/07/26 07:39:38;;;;;;;26.52;24.33;;;13.80;99.90;;;;;;5107849;28;20113;-78
2023/07/26 07:42:04;;;;;;;23.42;21.70;;;13.80;99.70;;;;;;5088836;27;20055;-78
2023/07/26 07:44:30;;;;;;;24.10;22.40;;;13.70;99.70;;;;;;5109023;28;21519;-78
2023/07/26 07:46:56;;;;;;;26.42;24.52;;;13.80;99.90;;;;;;5109282;28;20093;-79
2023/07/26 07:49:23;;;;;;;24.40;22.23;;;14.10;99.90;;;;;;5090567;28;20110;-78
2023/07/26 07:51:49;;;;;;;22.75;21.20;;;14.30;96.70;;;;;;5109036;27;20034;-79
2023/07/26 07:54:15;;;;;;;22.42;20.80;;;14.60;95.50;;;;;;5089002;28;20610;-79
2023/07/26 07:56:41;;;;;;;22.80;21.10;;;14.80;96.90;;;;;;5107731;28;20036;-78
2023/07/26 07:59:07;;;;;;;23.73;21.95;;;14.60;91.80;;;;;;5107770;28;20063;-78
2023/07/26 08:01:33;;;;;;;30.55;28.02;;;14.60;92.10;;;;;;5091428;28;20032;-78
2023/07/26 08:03:59;;;;;;;20.75;19.35;;;14.80;90.50;;;;;;5089368;28;20421;-78
2023/07/26 08:06:26;;;;;;;22.00;20.38;;;14.90;90.40;;;;;;5089020;28;20050;-78
2023/07/26 08:08:52;;;;;;;21.05;19.75;;;15.00;90.00;;;;;;5104877;28;20028;-77
2023/07/26 08:11:18;;;;;;;22.33;20.73;;;15.00;89.70;;;;;;5108250;28;20181;-76
2023/07/26 08:13:43;;;;;;;36.63;34.47;;;14.80;86.40;;;;;;5103852;28;20035;-77
2023/07/26 08:16:09;;;;;;;19.42;17.95;;;14.80;84.10;;;;;;5104913;28;20028;-77
2023/07/26 08:18:36;;;;;;;23.05;21.45;;;14.80;85.10;;;;;;5087252;28;20560;-77
2023/07/26 08:21:02;;;;;;;20.55;19.35;;;14.70;84.20;;;;;;5116580;28;20027;-77
2023/07/26 08:23:30;;;;;;;22.05;20.65;;;14.90;85.20;;;;;;5114960;28;20031;-77
2023/07/26 08:25:56;;;;;;;22.55;21.15;;;15.30;85.60;;;;;;5113518;28;20039;-77
2023/07/26 08:28:22;;;;;;;22.42;20.92;;;15.90;83.20;;;;;;5089017;28;20031;-76
2023/07/26 08:30:47;;;;;;;20.42;19.20;;;16.20;78.90;;;;;;5111276;28;20027;-77
2023/07/26 08:33:13;;;;;;;33.75;30.98;;;16.40;80.70;;;;;;5084868;28;21187;-77
2023/07/26 08:35:39;;;;;;;20.02;18.73;;;16.30;75.40;;;;;;5110218;28;20031;-77
2023/07/26 08:38:05;;;;;;;19.73;18.42;;;16.10;78.60;;;;;;5103586;28;20028;-77
2023/07/26 08:40:31;;;;;;;19.02;17.70;;;15.80;77.70;;;;;;5085425;27;20035;-76
2023/07/26 08:43:02;;;;;;;19.27;18.23;;;16.00;77.80;;;;;;5103009;28;20077;-77
2023/07/26 08:45:28;;;;;;;18.30;17.10;;;15.50;77.30;;;;;;5088378;28;20035;-77
2023/07/26 08:47:54;;;;;;;18.13;16.88;;;15.10;77.80;;;;;;5104899;28;20057;-77
2023/07/26 08:50:20;;;;;;;18.63;17.05;;;15.00;78.90;;;;;;5106334;27;20509;-77
2023/07/26 08:52:47;;;;;;;17.40;16.30;;;15.00;80.50;;;;;;5106528;28;20028;-77
2023/07/26 08:55:13;;;;;;;17.48;16.33;;;15.20;79.70;;;;;;5105390;28;20069;-77
2023/07/26 08:57:38;;;;;;;18.25;16.95;;;15.20;78.40;;;;;;5105286;28;20043;-76
2023/07/26 09:00:05;;;;;;;17.63;16.70;;;15.40;80.10;;;;;;5100791;28;20044;-77
2023/07/26 09:02:32;;;;;;;18.02;16.95;;;15.60;78.30;;;;;;5103133;28;20648;-78
2023/07/26 09:04:58;;;;;;;18.33;16.77;;;15.80;78.10;;;;;;5105256;28;20043;-77
2023/07/26 09:07:24;;;;;;;28.70;26.17;;;16.00;76.80;;;;;;5088270;28;20036;-77
2023/07/26 09:09:49;;;;;;;20.80;19.20;;;16.10;74.50;;;;;;5088379;28;20036;-77
2023/07/26 09:12:26;;;;;;;19.05;17.90;;;16.40;79.00;;;;;;5086390;28;20111;-77
2023/07/26 09:15:04;;;;;;;18.00;16.63;;;16.70;75.00;;;;;;5106611;28;20054;-77
2023/07/26 09:17:37;;;;;;;17.98;16.90;;;16.90;74.60;;;;;;5086361;28;20031;-77
2023/07/26 09:20:04;;;;;;;17.40;16.25;;;17.00;73.90;;;;;;5102839;28;20019;-76
2023/07/26 09:22:30;;;;;;;16.77;15.68;;;16.30;71.20;;;;;;5104283;28;20031;-77
2023/07/26 09:24:56;;;;;;;17.98;16.80;;;16.30;75.60;;;;;;5090155;28;20469;-76
2023/07/26 09:27:21;;;;;;;19.98;18.75;;;16.50;74.60;;;;;;5086320;28;20553;-76
2023/07/26 09:29:55;;;;;;;16.90;15.82;;;16.60;74.10;;;;;;5084566;28;20895;-76
2023/07/26 09:32:29;;;;;;;16.58;15.68;;;16.70;72.10;;;;;;5103733;28;20036;-76
2023/07/26 09:34:59;;;;;;;17.45;16.42;;;17.30;74.40;;;;;;5080914;28;20067;-74
2023/07/26 09:37:25;;;;;;;16.80;15.93;;;16.90;68.30;;;;;;5105930;27;20090;-74
2023/07/26 09:39:51;;;;;;;17.30;16.30;;;17.10;70.60;;;;;;5104751;28;20043;-74
2023/07/26 09:42:17;;;;;;;16.95;15.95;;;17.40;69.80;;;;;;5103686;28;20444;-73
2023/07/26 09:44:46;;;;;;;18.65;17.65;;;17.20;68.60;;;;;;5103497;28;20027;-73
2023/07/26 09:47:15;;;;;;;17.30;16.35;;;17.10;65.90;;;;;;5106210;28;20047;-74
2023/07/26 09:49:50;;;;;;;18.00;17.10;;;17.40;68.90;;;;;;5105428;28;20567;-73
2023/07/26 09:52:20;;;;;;;18.27;16.00;;;17.50;67.10;;;;;;5087252;28;20126;-73
2023/07/26 09:54:46;;;;;;;17.20;16.30;;;17.60;65.70;;;;;;5088194;28;20523;-74
2023/07/26 09:57:15;;;;;;;30.98;28.33;;;17.50;66.60;;;;;;5107339;28;20034;-74
2023/07/26 09:59:41;;;;;;;17.05;16.15;;;17.20;66.30;;;;;;5104531;28;20097;-74
2023/07/26 10:02:09;;;;;;;17.63;16.30;;;17.20;67.70;;;;;;5102477;28;20043;-72
2023/07/26 10:04:49;;;;;;;17.02;15.93;;;17.10;65.60;;;;;;5106102;28;20027;-71
2023/07/26 10:07:15;;;;;;;18.08;16.65;;;17.20;67.60;;;;;;5102414;28;20027;-80
2023/07/26 10:09:45;;;;;;;17.02;15.95;;;17.00;66.60;;;;;;5088510;28;20173;-74
2023/07/26 10:12:12;;;;;;;17.33;16.13;;;16.90;66.70;;;;;;5085676;28;20024;-72
2023/07/26 10:14:39;;;;;;;17.60;16.38;;;17.20;66.80;;;;;;5089457;28;20036;-72
2023/07/26 10:17:06;;;;;;;17.63;16.48;;;17.40;67.90;;;;;;5098893;28;20070;-72
2023/07/26 10:19:32;;;;;;;17.75;16.65;;;17.40;68.90;;;;;;5104048;28;20040;-71
2023/07/26 10:21:58;;;;;;;39.72;36.88;;;17.70;65.20;;;;;;5106320;28;20032;-71
2023/07/26 10:24:25;;;;;;;16.48;15.48;;;17.40;61.90;;;;;;5103728;28;20040;-71
2023/07/26 10:26:53;;;;;;;17.58;16.35;;;18.00;63.70;;;;;;5106055;28;20055;-71
2023/07/26 10:29:22;;;;;;;17.83;16.83;;;18.00;66.60;;;;;;5106817;28;20084;-72
2023/07/26 10:32:03;;;;;;;17.67;16.35;;;17.70;64.60;;;;;;5102245;28;20036;-71
2023/07/26 10:34:29;;;;;;;18.92;17.98;;;17.80;67.20;;;;;;5104599;28;20040;-71
2023/07/26 10:36:55;;;;;;;16.48;15.63;;;17.70;63.80;;;;;;5105849;28;20027;-72
2023/07/26 10:39:34;;;;;;;16.00;15.18;;;18.10;62.90;;;;;;5106935;28;20461;-72
2023/07/26 10:42:02;;;;;;;16.05;15.15;;;18.90;59.70;;;;;;5106017;28;20106;-72
2023/07/26 10:44:28;;;;;;;17.25;16.25;;;19.00;61.50;;;;;;5106654;28;20081;-72
2023/07/26 10:47:03;;;;;;;17.08;16.17;;;18.60;59.00;;;;;;5099845;28;20031;-72
2023/07/26 10:49:30;;;;;;;71.22;65.03;;;18.60;60.80;;;;;;5102643;28;20023;-73
2023/07/26 10:52:02;;;;;;;17.38;16.42;;;18.10;55.70;;;;;;5105581;28;20023;-74
2023/07/26 10:54:51;;;;;;;16.30;15.40;;;18.60;61.60;;;;;;5104133;28;20031;-74
2023/07/26 10:57:28;;;;;;;27.08;25.70;;;18.30;59.40;;;;;;5107219;28;20055;-74
2023/07/26 10:59:57;;;;;;;34.40;32.22;;;18.70;57.80;;;;;;5101787;28;20093;-75
2023/07/26 11:02:48;;;;;;;16.92;16.02;;;18.40;56.30;;;;;;5087717;28;20034;-75
2023/07/26 11:05:15;;;;;;;16.58;15.77;;;18.90;58.70;;;;;;5109953;28;20051;-74
2023/07/26 11:07:58;;;;;;;19.02;18.15;;;19.50;57.80;;;;;;5106020;28;20036;-73
2023/07/26 11:10:24;;;;;;;16.58;15.77;;;19.00;50.90;;;;;;5102249;28;20453;-72
2023/07/26 11:13:12;;;;;;;16.80;16.00;;;18.70;53.40;;;;;;5099131;28;20063;-73
2023/07/26 11:15:43;;;;;;;15.70;15.00;;;18.00;55.90;;;;;;5109113;28;20116;-72
2023/07/26 11:18:10;;;;;;;16.65;15.68;;;17.50;56.90;;;;;;5093202;28;20028;-72
2023/07/26 11:20:39;;;;;;;16.17;15.38;;;17.30;56.50;;;;;;5104602;28;20039;-72
2023/07/26 11:23:25;;;;;;;14.60;13.90;;;17.20;55.70;;;;;;5105834;28;20024;-72
2023/07/26 11:25:52;;;;;;;14.80;14.10;;;17.00;58.50;;;;;;5088866;28;20077;-74
2023/07/26 11:28:18;;;;;;;15.15;14.45;;;15.80;60.90;;;;;;5105138;27;20103;-74
2023/07/26 11:30:52;;;;;;;13.13;12.50;;;15.10;64.00;;;;;;5109971;27;20122;-77
2023/07/26 11:33:31;;;;;;;71.30;64.40;;;14.30;68.10;;;;;;5105060;28;20027;-76
2023/07/26 11:35:59;;;;;;;13.40;12.70;;;13.40;77.20;;;;;;5105725;28;20054;-75
2023/07/26 11:38:25;;;;;;;14.80;13.90;;;12.90;81.60;;;;;;5107855;28;20043;-77
2023/07/26 11:40:56;;;;;;;13.90;13.20;;;12.50;84.90;;;;;;5110712;28;20105;-80
2023/07/26 11:43:25;;;;;;;15.30;14.25;;;12.20;90.10;;;;;;5091286;28;20047;-78
2023/07/26 11:45:51;;;;;;;15.88;14.90;;;12.10;87.90;;;;;;5108486;28;20028;-78
2023/07/26 11:48:18;;;;;;;25.13;22.85;;;12.00;90.50;;;;;;5107895;28;20035;-79
2023/07/26 11:50:44;;;;;;;50.95;39.47;;;11.70;99.90;;;;;;5108954;27;20104;-82
2023/07/26 11:53:14;;;;;;;105.50;45.13;;;10.80;99.90;;;;;;5107014;28;20039;-82
2023/07/26 11:55:42;;;;;;;33.90;31.17;;;9.30;99.90;;;;;;5089890;28;20187;-78
2023/07/26 11:58:12;;;;;;;37.92;36.00;;;9.80;99.90;;;;;;5106561;28;20032;-79
2023/07/26 12:00:44;;;;;;;27.55;25.95;;;10.50;99.90;;;;;;5104858;28;20084;-78
2023/07/26 12:03:10;;;;;;;23.73;22.27;;;11.00;99.90;;;;;;5092428;28;20028;-77
2023/07/26 12:05:42;;;;;;;23.92;22.23;;;11.10;99.90;;;;;;5101593;27;20055;-79
2023/07/26 12:08:08;;;;;;;25.35;23.38;;;11.10;99.90;;;;;;5087209;28;20024;-77
2023/07/26 12:10:39;;;;;;;19.23;18.23;;;11.00;99.90;;;;;;5105068;28;20039;-77
2023/07/26 12:13:08;;;;;;;26.08;24.02;;;10.80;99.90;;;;;;5085523;28;20122;-77
2023/07/26 12:16:01;;;;;;;22.38;21.10;;;10.90;99.90;;;;;;5106967;28;20032;-78
2023/07/26 12:18:28;;;;;;;23.02;21.83;;;10.70;99.90;;;;;;5089220;28;20032;-79
2023/07/26 12:21:01;;;;;;;19.83;18.83;;;10.80;99.90;;;;;;5087261;28;20493;-80
2023/07/26 12:23:29;;;;;;;27.27;25.63;;;10.90;99.90;;;;;;5087999;28;20028;-82
2023/07/26 12:26:00;;;;;;;24.45;23.15;;;11.10;99.90;;;;;;5103396;28;20118;-81
2023/07/26 12:28:26;;;;;;;32.20;30.25;;;11.30;99.90;;;;;;5105888;27;20481;-82
2023/07/26 12:30:56;;;;;;;29.13;27.45;;;11.50;99.90;;;;;;5091481;28;20032;-79